Time;durP1;ratioP1;P1;durP2;ratioP2;P2;SDS_P1;SDS_P2;PMS_P1;PMS_P2;Temp;Humidity;BMP_temperature;BMP_pressure;BME280_temperature;BME280_humidity;BME280_pressure;Samples;Min_cycle;Max_cycle;Signal;HPM_P1;HPM_P2
2022/07/31 00:00:26;;;;;;;9.77;5.82;;;;;;;26.43;54.26;101623.66;7389361;19;20014;-46
2022/07/31 00:02:56;;;;;;;8.63;5.20;;;;;;;26.42;54.71;101622.81;7392025;19;20082;-46
2022/07/31 00:05:25;;;;;;;8.82;5.10;;;;;;;26.40;54.41;101623.97;7392830;19;20014;-46
2022/07/31 00:07:57;;;;;;;8.15;4.97;;;;;;;26.36;54.72;101615.38;7392091;19;20018;-47
2022/07/31 00:10:26;;;;;;;8.60;5.50;;;;;;;26.36;54.65;101620.75;7389908;19;20022;-47
2022/07/31 00:12:55;;;;;;;11.05;5.60;;;;;;;26.38;54.88;101617.91;7392213;19;20017;-46
2022/07/31 00:15:24;;;;;;;6.82;4.97;;;;;;;26.39;55.15;101622.25;7395387;19;20018;-47
2022/07/31 00:17:53;;;;;;;7.05;5.45;;;;;;;26.38;55.13;101612.53;7391823;19;20025;-48
2022/07/31 00:20:22;;;;;;;8.93;5.68;;;;;;;26.37;55.37;101621.59;7388872;19;20039;-49
2022/07/31 00:22:51;;;;;;;8.52;5.78;;;;;;;26.35;55.79;101616.38;7391948;19;20017;-49
2022/07/31 00:25:23;;;;;;;8.05;5.63;;;;;;;26.32;55.72;101605.94;7392239;19;20355;-47
2022/07/31 00:27:52;;;;;;;7.90;5.13;;;;;;;26.29;56.24;101608.88;7391767;19;20018;-47
2022/07/31 00:30:20;;;;;;;8.25;5.30;;;;;;;26.25;56.07;101600.31;7389449;19;20018;-46
2022/07/31 00:32:49;;;;;;;8.43;5.32;;;;;;;26.20;56.80;101602.59;7389842;19;20448;-45
2022/07/31 00:35:18;;;;;;;6.88;5.15;;;;;;;26.21;56.98;101596.22;7389701;19;20075;-46
2022/07/31 00:37:47;;;;;;;7.18;5.18;;;;;;;26.19;57.04;101595.56;7391333;19;20472;-46
2022/07/31 00:40:18;;;;;;;7.15;5.35;;;;;;;26.16;56.98;101590.44;7388805;19;20010;-49
2022/07/31 00:42:49;;;;;;;6.53;5.22;;;;;;;26.16;57.10;101589.63;7390791;19;20480;-50
2022/07/31 00:45:18;;;;;;;7.32;5.22;;;;;;;26.16;57.29;101589.63;7390434;19;20027;-51
2022/07/31 00:47:47;;;;;;;8.52;4.85;;;;;;;26.15;57.59;101590.59;7392624;19;20039;-50
2022/07/31 00:50:17;;;;;;;8.70;5.00;;;;;;;26.15;57.89;101591.47;7388729;19;20018;-46
2022/07/31 00:52:45;;;;;;;7.53;5.18;;;;;;;26.13;57.69;101585.38;7390615;19;20381;-47
2022/07/31 00:55:15;;;;;;;5.82;4.93;;;;;;;26.17;57.88;101581.41;7390614;19;20025;-46
2022/07/31 00:57:44;;;;;;;5.43;4.53;;;;;;;26.19;58.03;101586.63;7390298;19;20482;-49
2022/07/31 01:00:17;;;;;;;7.25;4.60;;;;;;;26.22;57.99;101589.00;7385109;19;20011;-49
2022/07/31 01:02:47;;;;;;;8.18;5.03;;;;;;;26.17;58.60;101588.63;7388160;19;20019;-45
2022/07/31 01:05:17;;;;;;;8.68;5.45;;;;;;;26.13;58.36;101589.94;7390315;19;20014;-49
2022/07/31 01:07:47;;;;;;;5.72;4.35;;;;;;;26.15;59.23;101580.72;7388626;19;20045;-45
2022/07/31 01:10:37;;;;;;;5.70;4.93;;;;;;;26.19;59.14;101575.88;7388020;19;20018;-44
2022/07/31 01:13:12;;;;;;;6.68;4.35;;;;;;;26.22;58.99;101573.75;7389452;19;20363;-46
2022/07/31 01:15:45;;;;;;;11.93;4.63;;;;;;;26.18;59.96;101574.22;7389277;19;20010;-44
2022/07/31 01:18:15;;;;;;;9.02;4.88;;;;;;;26.08;59.79;101571.59;7387521;19;20015;-48
2022/07/31 01:20:47;;;;;;;9.32;5.10;;;;;;;25.54;63.34;101576.78;7389582;19;20018;-48
2022/07/31 01:23:32;;;;;;;8.48;5.13;;;;;;;25.46;64.03;101580.22;7389795;19;20018;-45
2022/07/31 01:26:26;;;;;;;7.68;4.43;;;;;;;25.76;62.74;101577.38;7388374;19;20409;-44
2022/07/31 01:29:20;;;;;;;7.00;5.50;;;;;;;25.83;62.10;101570.44;7386211;19;20475;-44
2022/07/31 01:31:55;;;;;;;7.10;5.03;;;;;;;25.74;62.59;101578.38;7388383;19;20023;-44
2022/07/31 01:34:29;;;;;;;8.85;5.18;;;;;;;25.78;63.09;101570.03;7388057;19;20019;-45
2022/07/31 01:37:08;;;;;;;7.10;4.97;;;;;;;25.82;63.73;101572.28;7390026;19;20022;-43
2022/07/31 01:39:39;;;;;;;7.63;5.03;;;;;;;25.91;63.37;101565.16;7386182;19;20090;-44
2022/07/31 01:42:10;;;;;;;5.70;4.50;;;;;;;25.91;63.83;101562.47;7387993;19;20018;-46
2022/07/31 01:44:46;;;;;;;6.18;4.60;;;;;;;25.92;63.21;101561.47;7393030;19;20014;-49
2022/07/31 01:47:18;;;;;;;8.00;4.72;;;;;;;25.96;63.00;101559.31;7387809;19;20014;-44
2022/07/31 01:49:50;;;;;;;6.33;4.30;;;;;;;25.96;63.14;101549.41;7385964;19;20029;-45
2022/07/31 01:52:21;;;;;;;5.65;4.32;;;;;;;25.96;63.19;101546.72;7387856;19;20021;-44
2022/07/31 01:54:53;;;;;;;6.05;4.75;;;;;;;25.90;64.08;101541.97;7387543;19;20459;-46
2022/07/31 01:57:25;;;;;;;5.45;4.75;;;;;;;25.95;63.71;101544.19;7389077;19;20522;-44
2022/07/31 02:00:00;;;;;;;;;;;;;;;25.96;63.84;101537.84;7388108;19;20025;-44
2022/07/31 02:02:49;;;;;;;5.80;4.50;;;;;;;25.91;64.18;101538.31;7389599;19;19926;-44
2022/07/31 02:05:20;;;;;;;5.40;4.65;;;;;;;25.93;63.47;101538.16;7388557;19;20010;-50
2022/07/31 02:07:51;;;;;;;7.75;4.90;;;;;;;25.96;63.46;101545.91;7386989;19;20021;-48
2022/07/31 02:10:25;;;;;;;6.25;4.75;;;;;;;25.96;62.95;101540.53;7389246;19;20145;-46
2022/07/31 02:12:55;;;;;;;8.35;5.10;;;;;;;25.97;62.81;101532.31;7393940;19;20011;-50
2022/07/31 02:15:28;;;;;;;6.00;4.70;;;;;;;25.96;63.27;101535.16;7395567;19;20026;-46
2022/07/31 02:17:58;;;;;;;8.02;4.70;;;;;;;25.98;63.83;101535.88;7394315;19;20017;-45
2022/07/31 02:20:48;;;;;;;5.50;4.82;;;;;;;25.97;63.43;101536.84;7393857;19;20364;-46
2022/07/31 02:23:17;;;;;;;5.75;4.57;;;;;;;26.00;64.42;101534.72;7393931;19;20488;-48
2022/07/31 02:25:48;;;;;;;8.02;5.63;;;;;;;26.01;64.38;101530.22;7395592;19;20111;-46
2022/07/31 02:28:21;;;;;;;9.32;5.00;;;;;;;25.94;65.18;101535.31;7393483;19;20019;-50
2022/07/31 02:30:53;;;;;;;7.82;4.72;;;;;;;25.92;64.90;101537.31;7396125;19;20416;-51
2022/07/31 02:33:26;;;;;;;8.38;5.00;;;;;;;25.88;64.81;101531.38;7396920;19;20015;-49
2022/07/31 02:35:57;;;;;;;5.68;5.03;;;;;;;25.88;64.58;101531.38;7394833;19;20126;-48
2022/07/31 02:38:28;;;;;;;6.18;5.20;;;;;;;25.89;65.34;101530.41;7393991;19;20011;-46
2022/07/31 02:41:01;;;;;;;8.50;5.07;;;;;;;25.88;65.17;101525.19;7392316;19;20347;-51
2022/07/31 02:43:33;;;;;;;8.43;5.22;;;;;;;25.74;65.22;101537.28;7397762;19;20014;-43
2022/07/31 02:46:12;;;;;;;8.02;5.38;;;;;;;25.44;67.16;101533.88;7392618;19;20011;-45
2022/07/31 02:48:42;;;;;;;9.23;4.93;;;;;;;25.70;65.73;101530.50;7391431;19;20156;-46
2022/07/31 02:51:15;;;;;;;7.72;4.80;;;;;;;25.78;65.93;101521.72;7393099;19;20489;-45
2022/07/31 02:53:44;;;;;;;8.45;4.88;;;;;;;25.76;66.21;101524.53;7392868;19;20447;-47
2022/07/31 02:56:14;;;;;;;6.78;4.70;;;;;;;25.73;66.95;101523.00;7393041;19;20017;-44
2022/07/31 02:58:43;;;;;;;8.52;5.13;;;;;;;25.48;68.44;101527.22;7393062;19;20053;-43
2022/07/31 03:01:38;;;;;;;7.38;4.90;;;;;;;25.55;68.41;101514.91;7391079;19;20035;-52
2022/07/31 03:04:08;;;;;;;7.15;4.72;;;;;;;25.61;67.83;101508.09;7392739;19;20037;-43
2022/07/31 03:06:37;;;;;;;6.95;4.97;;;;;;;25.63;68.25;101511.47;7394332;19;20019;-44
2022/07/31 03:09:06;;;;;;;7.10;4.72;;;;;;;25.65;67.91;101512.19;7392295;19;20026;-46
2022/07/31 03:11:36;;;;;;;8.05;4.40;;;;;;;25.67;68.39;101498.59;7391708;19;20021;-44
2022/07/31 03:14:07;;;;;;;6.75;4.68;;;;;;;25.63;69.24;101500.72;7393278;19;20015;-46
2022/07/31 03:16:40;;;;;;;8.10;4.78;;;;;;;25.64;69.96;101507.78;7392496;19;20010;-47
2022/07/31 03:19:10;;;;;;;6.22;4.97;;;;;;;25.63;68.63;101505.25;7391755;19;20070;-49
2022/07/31 03:21:40;;;;;;;8.18;5.05;;;;;;;25.61;67.96;101505.41;7389631;19;20471;-48
2022/07/31 03:24:10;;;;;;;8.07;4.60;;;;;;;25.62;68.81;101493.69;7391713;19;20011;-47
2022/07/31 03:26:39;;;;;;;7.80;4.80;;;;;;;25.61;68.13;101492.00;7391928;19;20041;-49
2022/07/31 03:29:08;;;;;;;7.60;4.80;;;;;;;25.65;68.58;101485.34;7389981;19;20352;-45
2022/07/31 03:31:40;;;;;;;5.65;4.70;;;;;;;25.65;68.30;101488.03;7394157;19;20364;-49
2022/07/31 03:34:10;;;;;;;5.55;4.30;;;;;;;25.55;68.99;101484.56;7392210;19;20027;-45
2022/07/31 03:36:39;;;;;;;7.30;4.97;;;;;;;25.50;69.83;101484.16;7391903;19;20058;-49
2022/07/31 03:39:08;;;;;;;7.25;4.68;;;;;;;25.55;68.90;101482.69;7390449;19;20145;-44
2022/07/31 03:41:45;;;;;;;6.97;5.07;;;;;;;25.62;69.25;101482.09;7389755;19;20011;-46
2022/07/31 03:44:14;;;;;;;6.18;5.07;;;;;;;25.42;69.69;101479.53;7391391;19;20018;-48
2022/07/31 03:46:46;;;;;;;6.90;5.28;;;;;;;25.46;69.71;101480.06;7391359;19;20051;-50
2022/07/31 03:49:16;;;;;;;8.13;5.15;;;;;;;25.50;70.69;101478.78;7393791;19;20479;-49
2022/07/31 03:51:45;;;;;;;6.68;5.55;;;;;;;25.24;72.46;101490.16;7391597;19;20010;-47
2022/07/31 03:54:14;;;;;;;10.68;6.38;;;;;;;25.36;73.09;101482.81;7391421;19;20074;-47
2022/07/31 03:56:46;;;;;;;8.73;6.18;;;;;;;25.22;74.16;101482.28;7392945;19;20127;-48
2022/07/31 03:59:16;;;;;;;;;;;;;;;25.28;75.34;101490.75;7390314;19;20018;-48
2022/07/31 04:01:48;;;;;;;9.82;6.65;;;;;;;24.99;77.91;101487.16;7390324;19;19983;-44
2022/07/31 04:04:23;;;;;;;7.68;6.88;;;;;;;24.70;82.25;101481.88;7393457;19;20014;-44
2022/07/31 04:07:01;;;;;;;8.15;7.32;;;;;;;24.65;84.23;101481.47;7390815;19;20002;-44
2022/07/31 04:09:30;;;;;;;8.10;7.28;;;;;;;24.84;82.92;101475.22;7391388;19;20025;-48
2022/07/31 04:11:59;;;;;;;13.15;9.10;;;;;;;24.69;83.33;101473.00;7394714;19;20014;-47
2022/07/31 04:14:28;;;;;;;12.93;9.15;;;;;;;24.61;84.11;101475.56;7398758;19;20014;-44
2022/07/31 04:17:00;;;;;;;12.45;9.13;;;;;;;24.60;85.39;101476.56;7401470;19;20132;-50
2022/07/31 04:19:31;;;;;;;12.18;10.05;;;;;;;24.63;85.54;101491.47;7396821;19;20031;-44
2022/07/31 04:22:00;;;;;;;11.13;9.35;;;;;;;24.32;88.78;101492.47;7395916;19;20006;-43
2022/07/31 04:24:29;;;;;;;11.88;9.85;;;;;;;24.44;87.63;101492.34;7393202;19;20429;-45
2022/07/31 04:27:08;;;;;;;12.77;9.65;;;;;;;24.61;85.22;101498.84;7391671;19;20070;-43
2022/07/31 04:29:43;;;;;;;12.07;10.55;;;;;;;24.64;85.26;101491.34;7392525;19;20320;-44
2022/07/31 04:32:15;;;;;;;14.32;10.43;;;;;;;24.49;87.19;101487.41;7392724;19;20026;-45
2022/07/31 04:35:01;;;;;;;15.15;10.90;;;;;;;24.30;87.84;101486.44;7394801;19;20022;-46
2022/07/31 04:37:30;;;;;;;12.63;11.25;;;;;;;24.41;87.62;101487.25;7392884;19;20014;-45
2022/07/31 04:40:00;;;;;;;13.90;11.43;;;;;;;24.38;87.94;101490.22;7389140;19;20022;-45
2022/07/31 04:42:29;;;;;;;13.18;11.10;;;;;;;24.13;92.10;101490.66;7388161;19;20021;-43
2022/07/31 04:44:58;;;;;;;14.55;11.68;;;;;;;24.15;92.05;101494.03;7390045;19;20517;-44
2022/07/31 04:47:29;;;;;;;13.70;11.60;;;;;;;24.27;90.44;101492.06;7391247;19;20018;-46
2022/07/31 04:49:59;;;;;;;15.82;12.20;;;;;;;24.34;89.10;101492.34;7387793;19;20025;-46
2022/07/31 04:52:28;;;;;;;14.80;12.93;;;;;;;24.26;90.81;101495.72;7389986;19;20022;-48
2022/07/31 04:55:03;;;;;;;16.45;11.90;;;;;;;24.45;89.21;101494.88;7393381;19;20011;-46
2022/07/31 04:57:32;;;;;;;14.38;11.73;;;;;;;24.62;88.22;101496.00;7389195;19;20021;-48
2022/07/31 05:00:01;;;;;;;15.15;12.32;;;;;;;24.18;91.23;101499.09;7388992;19;20049;-51
2022/07/31 05:02:36;;;;;;;14.63;12.25;;;;;;;24.43;90.61;101494.19;7388093;19;20019;-46
2022/07/31 05:05:07;;;;;;;15.90;12.83;;;;;;;24.43;90.62;101488.81;7391741;19;20018;-46
2022/07/31 05:07:40;;;;;;;18.75;12.32;;;;;;;24.61;88.66;101486.25;7393265;19;20113;-50
2022/07/31 05:11:21;;;;;;;23.08;11.63;;;;;;;24.78;87.30;101481.16;7386901;19;20020;-48
2022/07/31 05:13:04;;;;;;;15.02;11.90;;;;;;;24.51;93.25;101483.56;7388822;19;20380;-51
2022/07/31 05:15:34;;;;;;;18.42;13.45;;;;;;;24.23;97.82;101481.75;7388937;19;20428;-47
2022/07/31 05:18:07;;;;;;;20.00;12.55;;;;;;;24.14;99.38;101476.28;7388385;19;20448;-43
2022/07/31 05:20:54;;;;;;;15.00;11.80;;;;;;;24.31;96.33;101480.06;7393332;19;20015;-51
2022/07/31 05:23:39;;;;;;;15.07;11.70;;;;;;;23.86;99.81;101475.25;7390304;19;20018;-46
2022/07/31 05:26:17;;;;;;;18.33;12.38;;;;;;;24.03;100.00;101473.75;7390172;19;20019;-46
2022/07/31 05:28:48;;;;;;;13.73;10.60;;;;;;;24.32;99.21;101481.75;7386997;19;20018;-49
2022/07/31 05:31:18;;;;;;;16.35;10.40;;;;;;;24.53;95.64;101481.59;7390125;19;20034;-47
2022/07/31 05:33:51;;;;;;;14.07;10.23;;;;;;;24.45;95.65;101484.16;7388632;19;20010;-46
2022/07/31 05:36:21;;;;;;;18.27;11.60;;;;;;;24.51;95.45;101485.41;7390337;19;20018;-48
2022/07/31 05:38:50;;;;;;;14.70;11.65;;;;;;;24.51;93.16;101490.78;7386927;19;20015;-44
2022/07/31 05:41:40;;;;;;;14.43;11.75;;;;;;;24.29;95.88;101487.41;7387134;19;20033;-44
2022/07/31 05:44:35;;;;;;;19.08;13.05;;;;;;;24.34;94.65;101482.47;7387845;19;20025;-48
2022/07/31 05:47:04;;;;;;;19.38;13.10;;;;;;;24.48;93.35;101475.00;7387575;19;20013;-47
2022/07/31 05:49:36;;;;;;;17.25;13.90;;;;;;;24.09;97.24;101478.53;7387298;19;20086;-46
2022/07/31 05:52:05;;;;;;;21.98;13.98;;;;;;;24.13;98.54;101474.59;7388573;19;20034;-44
2022/07/31 05:54:34;;;;;;;16.02;13.55;;;;;;;23.95;96.80;101476.28;7389396;19;20372;-44
2022/07/31 05:57:22;;;;;;;17.83;14.60;;;;;;;24.15;96.87;101485.16;7390301;19;20087;-55
2022/07/31 05:59:51;;;;;;;19.75;14.23;;;;;;;24.14;96.64;101496.84;7386445;19;20361;-44
2022/07/31 06:02:20;;;;;;;19.73;14.73;;;;;;;24.48;93.71;101497.25;7387679;19;20460;-44
2022/07/31 06:05:21;;;;;;;19.02;14.25;;;;;;;24.09;96.32;101497.28;7386664;19;20018;-47
2022/07/31 06:07:50;;;;;;;20.83;15.50;;;;;;;23.94;98.15;101493.31;7387974;19;20023;-46
2022/07/31 06:10:19;;;;;;;22.40;16.15;;;;;;;23.94;98.39;101496.84;7389113;19;20018;-44
2022/07/31 06:12:48;;;;;;;18.52;15.38;;;;;;;24.00;97.47;101500.81;7389380;19;20015;-44
2022/07/31 06:15:18;;;;;;;21.80;16.45;;;;;;;23.98;97.12;101495.56;7388325;19;20015;-44
2022/07/31 06:17:47;;;;;;;22.77;16.35;;;;;;;23.45;100.00;101511.91;7391501;19;20013;-45
2022/07/31 06:20:29;;;;;;;19.10;15.77;;;;;;;23.84;98.65;101502.16;7383113;19;20039;-45
2022/07/31 06:22:58;;;;;;;19.65;16.38;;;;;;;24.08;96.32;101502.78;7387783;19;20034;-48
2022/07/31 06:25:31;;;;;;;19.38;15.35;;;;;;;24.17;95.96;101502.78;7389459;19;20044;-50
2022/07/31 06:28:01;;;;;;;22.10;16.45;;;;;;;24.37;93.54;101497.41;7387255;19;20070;-44
2022/07/31 06:30:31;;;;;;;22.63;17.20;;;;;;;24.19;95.04;101506.16;7384507;19;20033;-49
2022/07/31 06:33:00;;;;;;;19.77;16.33;;;;;;;24.24;96.88;101507.56;7387164;19;20557;-46
2022/07/31 06:35:34;;;;;;;20.52;16.90;;;;;;;24.56;94.77;101499.25;7388169;19;20316;-49
2022/07/31 06:38:23;;;;;;;22.67;16.73;;;;;;;24.48;93.94;101505.28;7387918;19;20022;-45
2022/07/31 06:41:43;;;;;;;;;;;;;;;24.62;93.36;101501.38;7389396;19;20010;-47
2022/07/31 06:44:23;;;;;;;19.17;16.10;;;;;;;24.49;96.50;101488.25;7388431;19;19919;-49
2022/07/31 06:47:11;;;;;;;20.88;16.58;;;;;;;24.25;97.06;101493.19;7388782;19;20018;-49
2022/07/31 06:50:03;;;;;;;27.25;16.83;;;;;;;24.41;95.67;101492.63;7384635;19;20014;-51
2022/07/31 06:52:40;;;;;;;19.73;16.42;;;;;;;24.62;94.72;101477.25;7386423;19;20043;-46
2022/07/31 06:55:10;;;;;;;21.90;16.10;;;;;;;24.83;92.73;101484.25;7387010;19;20021;-50
2022/07/31 06:57:39;;;;;;;22.33;17.40;;;;;;;24.62;92.23;101482.59;7388126;19;20021;-44
2022/07/31 07:00:10;;;;;;;22.73;17.73;;;;;;;24.22;96.36;101480.94;7390758;19;20316;-44
2022/07/31 07:02:40;;;;;;;23.90;18.60;;;;;;;24.45;96.46;101486.00;7392641;19;20014;-45
2022/07/31 07:05:10;;;;;;;25.15;17.23;;;;;;;24.21;97.18;101492.63;7393791;19;20014;-47
2022/07/31 07:07:41;;;;;;;21.85;17.25;;;;;;;24.55;94.71;101492.19;7396624;19;20018;-44
2022/07/31 07:10:11;;;;;;;23.92;17.98;;;;;;;24.64;95.56;101482.47;7391435;19;20489;-44
2022/07/31 07:13:12;;;;;;;19.75;17.52;;;;;;;23.98;98.33;101476.81;7394755;19;20358;-46
2022/07/31 07:15:42;;;;;;;20.67;17.95;;;;;;;23.53;100.00;101471.94;7393776;19;20010;-43
2022/07/31 07:18:12;;;;;;;21.90;17.50;;;;;;;23.97;100.00;101477.81;7392438;19;20418;-51
2022/07/31 07:20:49;;;;;;;24.95;18.35;;;;;;;23.99;100.00;101483.03;7393030;19;20011;-46
2022/07/31 07:23:23;;;;;;;21.55;17.75;;;;;;;24.04;99.92;101487.97;7391694;19;20341;-49
2022/07/31 07:26:04;;;;;;;21.80;17.75;;;;;;;24.26;98.25;101485.00;7392519;19;20043;-58
2022/07/31 07:28:33;;;;;;;20.63;17.25;;;;;;;24.47;95.56;101486.69;7390576;19;20464;-56
2022/07/31 07:31:04;;;;;;;25.27;17.23;;;;;;;24.24;97.34;101478.94;7392008;19;20122;-54
2022/07/31 07:33:33;;;;;;;22.30;17.27;;;;;;;24.33;96.28;101469.25;7391299;19;20104;-56
2022/07/31 07:36:02;;;;;;;22.58;18.08;;;;;;;24.31;96.85;101476.56;7391338;19;20377;-53
2022/07/31 07:38:34;;;;;;;21.98;17.17;;;;;;;24.18;100.00;101487.56;7390919;19;20014;-54
2022/07/31 07:41:03;;;;;;;19.70;16.90;;;;;;;24.42;97.94;101472.88;7396952;19;20015;-52
2022/07/31 07:43:31;;;;;;;20.27;16.20;;;;;;;24.37;99.28;101475.97;7391360;19;20017;-55
2022/07/31 07:46:01;;;;;;;20.42;16.88;;;;;;;23.39;100.00;101475.84;7391044;19;20078;-56
2022/07/31 07:48:30;;;;;;;17.70;15.45;;;;;;;23.98;100.00;101476.00;7390150;19;20078;-56
2022/07/31 07:51:18;;;;;;;20.90;16.08;;;;;;;24.27;99.96;101475.13;7391525;19;20014;-57
2022/07/31 07:53:57;;;;;;;19.65;15.32;;;;;;;24.25;100.00;101474.44;7391513;19;20034;-56
2022/07/31 07:56:58;;;;;;;21.73;16.02;;;;;;;24.34;100.00;101476.25;7394850;19;20018;-51
2022/07/31 07:59:47;;;;;;;21.02;15.93;;;;;;;24.11;100.00;101470.34;7390359;19;20018;-55
2022/07/31 08:02:34;;;;;;;21.00;15.25;;;;;;;23.76;100.00;101472.56;7391919;19;20018;-57
2022/07/31 08:05:03;;;;;;;20.00;15.05;;;;;;;23.97;100.00;101471.59;7390665;19;20018;-57
2022/07/31 08:07:34;;;;;;;20.35;14.52;;;;;;;24.18;100.00;101475.00;7391626;19;20011;-57
2022/07/31 08:10:13;;;;;;;23.83;15.15;;;;;;;24.25;100.00;101472.59;7388016;19;20015;-56
2022/07/31 08:12:53;;;;;;;18.92;14.70;;;;;;;24.52;100.00;101474.53;7392176;19;20019;-56
2022/07/31 08:15:28;;;;;;;19.40;14.80;;;;;;;24.09;100.00;101472.34;7392710;19;20025;-54
2022/07/31 08:18:16;;;;;;;19.38;16.15;;;;;;;24.52;100.00;101469.19;7392140;19;20018;-58
2022/07/31 08:20:45;;;;;;;19.92;14.20;;;;;;;24.45;100.00;101469.91;7389500;19;20016;-61
2022/07/31 08:23:15;;;;;;;19.17;14.90;;;;;;;24.41;100.00;101476.53;7396872;19;20033;-63
2022/07/31 08:25:47;;;;;;;24.00;15.55;;;;;;;24.05;100.00;101465.56;7393830;19;20074;-63
2022/07/31 08:28:16;;;;;;;21.25;15.23;;;;;;;24.12;100.00;101464.84;7392221;19;20014;-63
2022/07/31 08:30:45;;;;;;;21.67;15.25;;;;;;;24.48;100.00;101459.75;7393417;19;20018;-63
2022/07/31 08:33:16;;;;;;;19.58;14.45;;;;;;;24.67;100.00;101468.78;7392229;19;20018;-64
2022/07/31 08:35:54;;;;;;;19.85;14.13;;;;;;;24.68;100.00;101463.25;7393411;19;20025;-62
2022/07/31 08:38:23;;;;;;;19.05;14.10;;;;;;;24.97;100.00;101462.31;7392099;19;20463;-63
2022/07/31 08:41:16;;;;;;;19.23;13.20;;;;;;;25.18;98.06;101461.28;7392061;19;20019;-63
2022/07/31 08:43:45;;;;;;;17.77;13.60;;;;;;;25.42;96.37;101452.72;7391090;19;20475;-63
2022/07/31 08:46:14;;;;;;;19.40;13.52;;;;;;;25.26;97.13;101457.84;7394998;19;20022;-60
2022/07/31 08:48:47;;;;;;;20.58;13.75;;;;;;;24.91;100.00;101460.25;7391077;19;20014;-63
2022/07/31 08:51:18;;;;;;;19.67;13.82;;;;;;;25.40;96.85;101457.38;7391135;19;20006;-62
2022/07/31 08:53:59;;;;;;;;;;;;;;;25.51;96.40;101459.00;7394813;19;20021;-63
2022/07/31 08:56:30;;;;;;;17.38;13.10;;;;;;;25.61;93.26;101459.78;7393526;19;19954;-64
2022/07/31 08:59:00;;;;;;;17.13;12.65;;;;;;;25.45;95.14;101460.44;7390509;19;20364;-61
2022/07/31 09:01:30;;;;;;;16.67;12.50;;;;;;;25.45;95.10;101460.44;7392049;19;20051;-63
2022/07/31 09:04:00;;;;;;;19.27;12.48;;;;;;;25.58;93.74;101467.31;7393392;19;20018;-64
2022/07/31 09:06:29;;;;;;;17.45;12.57;;;;;;;25.85;91.49;101456.50;7395337;19;20032;-63
2022/07/31 09:08:58;;;;;;;18.45;12.90;;;;;;;25.94;91.63;101456.59;7391188;19;20021;-64
2022/07/31 09:11:30;;;;;;;18.27;13.38;;;;;;;25.95;90.71;101456.44;7391416;19;20026;-64
2022/07/31 09:14:33;;;;;;;19.00;13.00;;;;;;;25.67;90.29;101456.50;7393516;19;20504;-63
2022/07/31 09:17:03;;;;;;;16.73;12.80;;;;;;;25.71;92.82;101457.88;7391845;19;20021;-63
2022/07/31 09:19:39;;;;;;;17.08;12.57;;;;;;;25.73;92.70;101455.91;7392704;19;20034;-64
2022/07/31 09:22:23;;;;;;;17.55;12.48;;;;;;;25.74;91.16;101456.72;7388642;19;20017;-60
2022/07/31 09:24:55;;;;;;;15.25;11.75;;;;;;;25.96;91.14;101454.59;7392589;19;20003;-64
2022/07/31 09:27:31;;;;;;;20.48;12.77;;;;;;;25.22;100.00;101450.09;7393654;19;20015;-63
2022/07/31 09:30:01;;;;;;;17.73;12.75;;;;;;;25.18;98.85;101446.00;7392019;19;20013;-60
2022/07/31 09:33:15;;;;;;;17.55;12.93;;;;;;;25.59;98.87;101451.06;7392194;19;20332;-62
2022/07/31 09:36:02;;;;;;;24.50;13.25;;;;;;;25.68;98.44;101451.97;7396397;19;20015;-63
2022/07/31 09:38:34;;;;;;;20.10;13.20;;;;;;;25.37;97.03;101453.16;7390290;19;20014;-63
2022/07/31 09:41:22;;;;;;;16.40;12.57;;;;;;;25.25;98.59;101457.00;7391704;19;20015;-63
2022/07/31 09:44:17;;;;;;;;;;;;;;;25.73;98.70;101445.16;7390477;19;20018;-64
2022/07/31 09:46:48;;;;;;;18.88;13.57;;;;;;;25.82;100.00;101447.91;7392012;19;19919;-64
2022/07/31 09:49:17;;;;;;;20.33;13.73;;;;;;;25.27;100.00;101456.84;7390367;19;20014;-63
2022/07/31 09:51:48;;;;;;;18.45;13.77;;;;;;;24.91;100.00;101457.56;7391479;19;20022;-64
2022/07/31 09:54:22;;;;;;;19.30;13.57;;;;;;;24.52;100.00;101458.47;7392388;19;20017;-64
2022/07/31 09:57:13;;;;;;;19.98;14.43;;;;;;;24.64;100.00;101461.03;7394518;19;20015;-64
2022/07/31 09:59:47;;;;;;;27.42;15.25;;;;;;;24.60;100.00;101454.25;7389522;19;20400;-63
2022/07/31 10:02:19;;;;;;;20.67;14.85;;;;;;;24.99;100.00;101454.16;7388668;19;20506;-64
2022/07/31 10:04:52;;;;;;;21.77;15.02;;;;;;;25.17;100.00;101454.22;7388953;19;20478;-65
2022/07/31 10:07:24;;;;;;;25.08;15.80;;;;;;;25.28;100.00;101456.69;7391085;19;20011;-64
2022/07/31 10:09:56;;;;;;;21.95;15.70;;;;;;;24.61;100.00;101459.47;7391448;19;20032;-63
2022/07/31 10:12:51;;;;;;;26.55;17.77;;;;;;;24.15;100.00;101459.22;7390081;19;20108;-61
2022/07/31 10:15:24;;;;;;;24.40;19.00;;;;;;;23.88;100.00;101462.59;7392021;19;20015;-64
2022/07/31 10:18:12;;;;;;;31.10;21.05;;;;;;;23.88;100.00;101459.91;7391556;19;20483;-62
2022/07/31 10:21:06;;;;;;;27.40;20.80;;;;;;;23.71;100.00;101457.91;7390689;19;20011;-63
2022/07/31 10:24:04;;;;;;;29.98;20.83;;;;;;;23.36;100.00;101451.22;7390700;19;20090;-64
2022/07/31 10:26:33;;;;;;;;;;;;;;;23.50;100.00;101451.66;7393045;19;20510;-61
2022/07/31 10:29:02;;;;;;;28.95;20.92;;;;;;;23.58;100.00;101444.78;7390828;19;19948;-63
2022/07/31 10:31:34;;;;;;;32.88;22.92;;;;;;;24.01;100.00;101439.09;7390133;19;20333;-64
2022/07/31 10:34:04;;;;;;;33.08;22.67;;;;;;;24.31;100.00;101433.69;7396889;19;20014;-61
2022/07/31 10:37:00;;;;;;;31.08;22.60;;;;;;;24.35;100.00;101449.34;7396027;19;20019;-60
2022/07/31 10:39:45;;;;;;;34.47;22.10;;;;;;;24.74;100.00;101445.75;7396846;19;20029;-60
2022/07/31 10:42:35;;;;;;;31.33;22.65;;;;;;;24.62;100.00;101436.22;7397631;19;20032;-59
2022/07/31 10:45:09;;;;;;;31.40;22.80;;;;;;;24.69;100.00;101438.16;7394500;19;20316;-61
2022/07/31 10:48:12;;;;;;;30.70;23.80;;;;;;;24.98;100.00;101439.88;7400655;19;20467;-62
2022/07/31 10:51:08;;;;;;;34.55;25.27;;;;;;;24.90;100.00;101430.91;7398643;19;20018;-61
2022/07/31 10:53:58;;;;;;;31.65;24.27;;;;;;;25.00;100.00;101439.75;7402383;19;20018;-60
2022/07/31 10:56:47;;;;;;;30.42;24.63;;;;;;;25.00;100.00;101429.00;7401704;19;20014;-62
2022/07/31 10:59:36;;;;;;;33.42;25.83;;;;;;;25.26;100.00;101428.31;7400488;19;20018;-62
2022/07/31 11:02:32;;;;;;;29.95;24.50;;;;;;;24.72;100.00;101425.47;7398075;19;20350;-62
2022/07/31 11:05:27;;;;;;;28.05;23.30;;;;;;;24.67;100.00;101424.06;7400432;19;20014;-62
2022/07/31 11:08:22;;;;;;;30.80;24.35;;;;;;;25.32;100.00;101436.66;7405734;19;20011;-63
2022/07/31 11:10:59;;;;;;;33.35;25.52;;;;;;;25.17;100.00;101422.84;7402704;19;20027;-63
2022/07/31 11:13:54;;;;;;;30.30;23.50;;;;;;;24.86;100.00;101425.84;7403037;19;20014;-63
2022/07/31 11:16:51;;;;;;;32.78;25.20;;;;;;;25.15;100.00;101421.34;7400599;19;20471;-62
2022/07/31 11:19:40;;;;;;;28.80;24.27;;;;;;;25.29;100.00;101428.88;7396355;19;20487;-62
2022/07/31 11:22:17;;;;;;;32.08;26.25;;;;;;;25.12;100.00;101430.53;7394995;19;20517;-63
2022/07/31 11:24:57;;;;;;;35.20;27.80;;;;;;;25.12;100.00;101419.78;7394802;19;20033;-63
2022/07/31 11:27:32;;;;;;;34.17;26.38;;;;;;;25.06;100.00;101420.41;7396839;19;20098;-63
2022/07/31 11:30:07;;;;;;;32.55;27.17;;;;;;;25.07;100.00;101413.19;7397212;19;20011;-62
2022/07/31 11:32:36;;;;;;;34.75;28.23;;;;;;;25.08;100.00;101405.00;7394643;19;20019;-63
2022/07/31 11:35:06;;;;;;;36.38;29.40;;;;;;;25.15;100.00;101407.94;7396617;19;20026;-63
2022/07/31 11:37:38;;;;;;;38.35;29.88;;;;;;;25.01;100.00;101407.41;7397283;19;20018;-63
2022/07/31 11:40:09;;;;;;;37.65;29.80;;;;;;;24.85;100.00;101407.22;7396424;19;20010;-63
2022/07/31 11:42:44;;;;;;;35.30;28.42;;;;;;;24.91;100.00;101405.78;7392945;19;20043;-63
2022/07/31 11:45:14;;;;;;;34.20;27.48;;;;;;;24.80;100.00;101402.31;7394471;19;20025;-62
2022/07/31 11:47:44;;;;;;;41.20;33.20;;;;;;;24.50;100.00;101395.28;7399806;19;20018;-63
2022/07/31 11:50:13;;;;;;;34.38;27.98;;;;;;;24.53;100.00;101397.72;7395233;19;20025;-63